sensor_id;sensor_type;location;lat;lon;timestamp;temperature;humidity
30037;DHT22;36325;51.512;-0.382;2023-09-12T00:01:15;20.40;99.90
30037;DHT22;36325;51.512;-0.382;2023-09-12T00:03:42;20.40;99.90
30037;DHT22;36325;51.512;-0.382;2023-09-12T00:06:09;20.40;99.90
30037;DHT22;36325;51.512;-0.382;2023-09-12T00:08:37;20.40;99.90
30037;DHT22;36325;51.512;-0.382;2023-09-12T00:11:06;20.40;99.90
30037;DHT22;36325;51.512;-0.382;2023-09-12T00:13:39;20.40;99.90
30037;DHT22;36325;51.512;-0.382;2023-09-12T00:16:07;20.50;99.90
30037;DHT22;36325;51.512;-0.382;2023-09-12T00:18:38;20.40;99.90
30037;DHT22;36325;51.512;-0.382;2023-09-12T00:21:06;20.40;99.90
30037;DHT22;36325;51.512;-0.382;2023-09-12T00:23:34;20.40;99.90
30037;DHT22;36325;51.512;-0.382;2023-09-12T00:26:05;20.40;99.90
30037;DHT22;36325;51.512;-0.382;2023-09-12T00:28:33;20.40;99.90
30037;DHT22;36325;51.512;-0.382;2023-09-12T00:31:02;20.40;99.90
30037;DHT22;36325;51.512;-0.382;2023-09-12T00:33:29;20.40;99.90
30037;DHT22;36325;51.512;-0.382;2023-09-12T00:35:58;20.40;99.90
30037;DHT22;36325;51.512;-0.382;2023-09-12T00:38:28;20.40;99.90
30037;DHT22;36325;51.512;-0.382;2023-09-12T00:40:55;20.30;99.90
30037;DHT22;36325;51.512;-0.382;2023-09-12T00:43:23;20.30;99.90
30037;DHT22;36325;51.512;-0.382;2023-09-12T00:45:51;20.30;99.90
30037;DHT22;36325;51.512;-0.382;2023-09-12T00:48:19;20.30;99.90
30037;DHT22;36325;51.512;-0.382;2023-09-12T00:50:50;20.30;99.90
30037;DHT22;36325;51.512;-0.382;2023-09-12T00:53:20;20.20;99.90
30037;DHT22;36325;51.512;-0.382;2023-09-12T00:55:57;20.20;99.90
30037;DHT22;36325;51.512;-0.382;2023-09-12T00:58:25;20.20;99.90
30037;DHT22;36325;51.512;-0.382;2023-09-12T01:00:53;20.20;99.90
30037;DHT22;36325;51.512;-0.382;2023-09-12T01:03:22;20.20;99.90
30037;DHT22;36325;51.512;-0.382;2023-09-12T01:05:50;20.10;99.90
30037;DHT22;36325;51.512;-0.382;2023-09-12T01:08:18;20.20;99.90
30037;DHT22;36325;51.512;-0.382;2023-09-12T01:10:48;20.20;99.90
30037;DHT22;36325;51.512;-0.382;2023-09-12T01:13:19;20.20;99.90
30037;DHT22;36325;51.512;-0.382;2023-09-12T01:15:46;20.10;99.90
30037;DHT22;36325;51.512;-0.382;2023-09-12T01:18:13;20.10;99.90
30037;DHT22;36325;51.512;-0.382;2023-09-12T01:21:04;20.00;99.90
30037;DHT22;36325;51.512;-0.382;2023-09-12T01:26:41;19.90;99.90
30037;DHT22;36325;51.512;-0.382;2023-09-12T01:29:12;19.80;99.90
30037;DHT22;36325;51.512;-0.382;2023-09-12T01:31:43;19.80;99.90
30037;DHT22;36325;51.512;-0.382;2023-09-12T01:34:12;19.70;99.90
30037;DHT22;36325;51.512;-0.382;2023-09-12T01:36:39;19.60;99.90
30037;DHT22;36325;51.512;-0.382;2023-09-12T01:39:09;19.70;99.90
30037;DHT22;36325;51.512;-0.382;2023-09-12T01:41:40;19.60;99.90
30037;DHT22;36325;51.512;-0.382;2023-09-12T01:44:12;19.60;99.90
30037;DHT22;36325;51.512;-0.382;2023-09-12T01:46:41;19.60;99.90
30037;DHT22;36325;51.512;-0.382;2023-09-12T01:49:10;19.50;99.90
30037;DHT22;36325;51.512;-0.382;2023-09-12T01:51:38;19.60;99.90
30037;DHT22;36325;51.512;-0.382;2023-09-12T01:54:07;19.50;99.90
30037;DHT22;36325;51.512;-0.382;2023-09-12T01:56:36;19.50;99.90
30037;DHT22;36325;51.512;-0.382;2023-09-12T01:59:04;19.50;99.90
30037;DHT22;36325;51.512;-0.382;2023-09-12T02:01:32;19.50;99.90
30037;DHT22;36325;51.512;-0.382;2023-09-12T02:03:59;19.40;99.90
30037;DHT22;36325;51.512;-0.382;2023-09-12T02:06:28;19.40;99.90
30037;DHT22;36325;51.512;-0.382;2023-09-12T02:08:55;19.40;99.90
30037;DHT22;36325;51.512;-0.382;2023-09-12T02:11:22;19.40;99.90
30037;DHT22;36325;51.512;-0.382;2023-09-12T02:13:50;19.40;99.90
30037;DHT22;36325;51.512;-0.382;2023-09-12T02:16:17;19.40;99.90
30037;DHT22;36325;51.512;-0.382;2023-09-12T02:18:45;19.40;99.90
30037;DHT22;36325;51.512;-0.382;2023-09-12T02:21:12;19.40;99.90
30037;DHT22;36325;51.512;-0.382;2023-09-12T02:23:40;19.40;99.90
30037;DHT22;36325;51.512;-0.382;2023-09-12T02:26:07;19.40;99.90
30037;DHT22;36325;51.512;-0.382;2023-09-12T02:28:35;19.30;99.90
30037;DHT22;36325;51.512;-0.382;2023-09-12T02:31:02;19.30;99.90
30037;DHT22;36325;51.512;-0.382;2023-09-12T02:33:29;19.30;99.90
30037;DHT22;36325;51.512;-0.382;2023-09-12T02:35:57;19.30;99.90
30037;DHT22;36325;51.512;-0.382;2023-09-12T02:41:05;19.30;99.90
30037;DHT22;36325;51.512;-0.382;2023-09-12T02:43:33;19.30;99.90
30037;DHT22;36325;51.512;-0.382;2023-09-12T02:46:01;19.20;99.90
30037;DHT22;36325;51.512;-0.382;2023-09-12T02:48:30;20.10;99.90
30037;DHT22;36325;51.512;-0.382;2023-09-12T02:50:57;19.20;99.90
30037;DHT22;36325;51.512;-0.382;2023-09-12T02:53:24;19.20;99.90
30037;DHT22;36325;51.512;-0.382;2023-09-12T02:55:53;19.20;99.90
30037;DHT22;36325;51.512;-0.382;2023-09-12T02:58:21;19.20;99.90
30037;DHT22;36325;51.512;-0.382;2023-09-12T03:00:48;19.30;99.90
30037;DHT22;36325;51.512;-0.382;2023-09-12T03:03:17;19.30;99.90
30037;DHT22;36325;51.512;-0.382;2023-09-12T03:05:45;19.30;99.90
30037;DHT22;36325;51.512;-0.382;2023-09-12T03:08:12;19.30;99.90
30037;DHT22;36325;51.512;-0.382;2023-09-12T03:10:39;19.30;99.90
30037;DHT22;36325;51.512;-0.382;2023-09-12T03:13:07;19.30;99.90
30037;DHT22;36325;51.512;-0.382;2023-09-12T03:15:37;19.30;99.90
30037;DHT22;36325;51.512;-0.382;2023-09-12T03:18:09;19.30;99.90
30037;DHT22;36325;51.512;-0.382;2023-09-12T03:20:39;19.30;99.90
30037;DHT22;36325;51.512;-0.382;2023-09-12T03:23:07;19.30;99.90
30037;DHT22;36325;51.512;-0.382;2023-09-12T03:25:38;19.30;99.90
30037;DHT22;36325;51.512;-0.382;2023-09-12T03:28:07;19.30;99.90
30037;DHT22;36325;51.512;-0.382;2023-09-12T03:30:36;19.20;99.90
30037;DHT22;36325;51.512;-0.382;2023-09-12T03:33:05;19.20;99.90
30037;DHT22;36325;51.512;-0.382;2023-09-12T03:35:33;19.20;99.90
30037;DHT22;36325;51.512;-0.382;2023-09-12T03:38:01;19.20;99.90
30037;DHT22;36325;51.512;-0.382;2023-09-12T03:40:31;19.10;99.90
30037;DHT22;36325;51.512;-0.382;2023-09-12T03:42:59;19.10;99.90
30037;DHT22;36325;51.512;-0.382;2023-09-12T03:45:27;19.10;99.90
30037;DHT22;36325;51.512;-0.382;2023-09-12T03:47:54;19.10;99.90
30037;DHT22;36325;51.512;-0.382;2023-09-12T03:50:24;19.10;99.90
30037;DHT22;36325;51.512;-0.382;2023-09-12T03:52:51;19.10;99.90
30037;DHT22;36325;51.512;-0.382;2023-09-12T03:55:19;19.10;99.90
30037;DHT22;36325;51.512;-0.382;2023-09-12T03:57:47;19.00;99.90
30037;DHT22;36325;51.512;-0.382;2023-09-12T04:00:15;19.00;99.90
30037;DHT22;36325;51.512;-0.382;2023-09-12T04:02:46;19.00;99.90
30037;DHT22;36325;51.512;-0.382;2023-09-12T04:05:14;19.00;99.90
30037;DHT22;36325;51.512;-0.382;2023-09-12T04:07:46;19.00;99.90
30037;DHT22;36325;51.512;-0.382;2023-09-12T04:10:14;19.00;99.90
30037;DHT22;36325;51.512;-0.382;2023-09-12T04:12:42;19.00;99.90
30037;DHT22;36325;51.512;-0.382;2023-09-12T04:15:09;19.00;99.90
30037;DHT22;36325;51.512;-0.382;2023-09-12T04:17:37;19.00;99.90
30037;DHT22;36325;51.512;-0.382;2023-09-12T04:20:06;19.00;99.90
30037;DHT22;36325;51.512;-0.382;2023-09-12T04:22:33;18.90;99.90
30037;DHT22;36325;51.512;-0.382;2023-09-12T04:25:01;18.90;99.90
30037;DHT22;36325;51.512;-0.382;2023-09-12T04:27:29;18.90;99.90
30037;DHT22;36325;51.512;-0.382;2023-09-12T04:29:57;18.90;99.90
30037;DHT22;36325;51.512;-0.382;2023-09-12T04:32:26;18.90;99.90
30037;DHT22;36325;51.512;-0.382;2023-09-12T04:34:55;18.90;99.90
30037;DHT22;36325;51.512;-0.382;2023-09-12T04:37:23;18.90;99.90
30037;DHT22;36325;51.512;-0.382;2023-09-12T04:39:50;18.80;99.90
30037;DHT22;36325;51.512;-0.382;2023-09-12T04:42:19;18.90;99.90
30037;DHT22;36325;51.512;-0.382;2023-09-12T04:44:48;18.80;99.90
30037;DHT22;36325;51.512;-0.382;2023-09-12T04:47:15;18.80;99.90
30037;DHT22;36325;51.512;-0.382;2023-09-12T04:49:44;18.80;99.90
30037;DHT22;36325;51.512;-0.382;2023-09-12T04:52:14;18.80;99.90
30037;DHT22;36325;51.512;-0.382;2023-09-12T04:54:41;18.80;99.90
30037;DHT22;36325;51.512;-0.382;2023-09-12T04:57:09;18.70;99.90
30037;DHT22;36325;51.512;-0.382;2023-09-12T04:59:36;18.70;99.90
30037;DHT22;36325;51.512;-0.382;2023-09-12T05:02:04;18.70;99.90
30037;DHT22;36325;51.512;-0.382;2023-09-12T05:04:31;18.70;99.90
30037;DHT22;36325;51.512;-0.382;2023-09-12T05:06:58;18.60;99.90
30037;DHT22;36325;51.512;-0.382;2023-09-12T05:09:26;18.70;99.90
30037;DHT22;36325;51.512;-0.382;2023-09-12T05:11:53;18.60;99.90
30037;DHT22;36325;51.512;-0.382;2023-09-12T05:14:21;18.60;99.90
30037;DHT22;36325;51.512;-0.382;2023-09-12T05:16:51;18.60;99.90
30037;DHT22;36325;51.512;-0.382;2023-09-12T05:19:18;18.60;99.90
30037;DHT22;36325;51.512;-0.382;2023-09-12T05:21:46;18.60;99.90
30037;DHT22;36325;51.512;-0.382;2023-09-12T05:24:13;18.60;99.90
30037;DHT22;36325;51.512;-0.382;2023-09-12T05:26:41;18.60;99.90
30037;DHT22;36325;51.512;-0.382;2023-09-12T05:29:10;18.60;99.90
30037;DHT22;36325;51.512;-0.382;2023-09-12T05:31:37;18.60;99.90
30037;DHT22;36325;51.512;-0.382;2023-09-12T05:34:05;18.60;99.90
30037;DHT22;36325;51.512;-0.382;2023-09-12T05:36:33;18.60;99.90
30037;DHT22;36325;51.512;-0.382;2023-09-12T05:39:00;18.60;99.90
30037;DHT22;36325;51.512;-0.382;2023-09-12T05:41:28;18.70;99.90
30037;DHT22;36325;51.512;-0.382;2023-09-12T05:43:56;18.70;99.90
30037;DHT22;36325;51.512;-0.382;2023-09-12T05:46:24;18.70;99.90
30037;DHT22;36325;51.512;-0.382;2023-09-12T05:48:51;18.70;99.90
30037;DHT22;36325;51.512;-0.382;2023-09-12T05:51:19;18.70;99.90
30037;DHT22;36325;51.512;-0.382;2023-09-12T05:53:47;18.80;99.90
30037;DHT22;36325;51.512;-0.382;2023-09-12T05:56:14;18.70;99.90
30037;DHT22;36325;51.512;-0.382;2023-09-12T05:58:43;18.80;99.90
30037;DHT22;36325;51.512;-0.382;2023-09-12T06:01:12;18.80;99.90
30037;DHT22;36325;51.512;-0.382;2023-09-12T06:03:40;18.80;99.90
30037;DHT22;36325;51.512;-0.382;2023-09-12T06:06:07;18.80;99.90
30037;DHT22;36325;51.512;-0.382;2023-09-12T06:08:36;18.80;99.90
30037;DHT22;36325;51.512;-0.382;2023-09-12T06:11:04;18.80;99.90
30037;DHT22;36325;51.512;-0.382;2023-09-12T06:13:31;18.80;99.90
30037;DHT22;36325;51.512;-0.382;2023-09-12T06:16:01;18.90;99.90
30037;DHT22;36325;51.512;-0.382;2023-09-12T06:18:29;18.90;99.90
30037;DHT22;36325;51.512;-0.382;2023-09-12T06:21:00;18.90;99.90
30037;DHT22;36325;51.512;-0.382;2023-09-12T06:23:33;18.90;99.90
30037;DHT22;36325;51.512;-0.382;2023-09-12T06:26:01;19.00;99.90
30037;DHT22;36325;51.512;-0.382;2023-09-12T06:28:30;19.00;99.90
30037;DHT22;36325;51.512;-0.382;2023-09-12T06:30:58;19.00;99.90
30037;DHT22;36325;51.512;-0.382;2023-09-12T06:33:26;19.10;99.90
30037;DHT22;36325;51.512;-0.382;2023-09-12T06:35:54;19.00;99.90
30037;DHT22;36325;51.512;-0.382;2023-09-12T06:38:23;19.10;99.90
30037;DHT22;36325;51.512;-0.382;2023-09-12T06:40:51;19.10;99.90
30037;DHT22;36325;51.512;-0.382;2023-09-12T06:43:19;19.10;99.90
30037;DHT22;36325;51.512;-0.382;2023-09-12T06:45:47;19.10;99.90
30037;DHT22;36325;51.512;-0.382;2023-09-12T06:48:15;19.10;99.90
30037;DHT22;36325;51.512;-0.382;2023-09-12T06:50:43;19.20;99.90
30037;DHT22;36325;51.512;-0.382;2023-09-12T06:53:16;19.20;99.90
30037;DHT22;36325;51.512;-0.382;2023-09-12T06:55:44;19.30;99.90
30037;DHT22;36325;51.512;-0.382;2023-09-12T06:58:12;19.30;99.90
30037;DHT22;36325;51.512;-0.382;2023-09-12T07:00:39;19.30;99.90
30037;DHT22;36325;51.512;-0.382;2023-09-12T07:03:09;19.40;99.90
30037;DHT22;36325;51.512;-0.382;2023-09-12T07:05:41;19.40;99.90
30037;DHT22;36325;51.512;-0.382;2023-09-12T07:08:09;19.50;99.90
30037;DHT22;36325;51.512;-0.382;2023-09-12T07:10:37;19.50;99.90
30037;DHT22;36325;51.512;-0.382;2023-09-12T07:13:06;19.60;99.90
30037;DHT22;36325;51.512;-0.382;2023-09-12T07:15:36;19.70;99.90
30037;DHT22;36325;51.512;-0.382;2023-09-12T07:18:04;19.70;99.90
30037;DHT22;36325;51.512;-0.382;2023-09-12T07:20:34;19.70;99.90
30037;DHT22;36325;51.512;-0.382;2023-09-12T07:23:03;19.70;99.90
30037;DHT22;36325;51.512;-0.382;2023-09-12T07:25:35;19.70;99.90
30037;DHT22;36325;51.512;-0.382;2023-09-12T07:28:09;19.70;99.90
30037;DHT22;36325;51.512;-0.382;2023-09-12T07:30:37;19.70;99.90
30037;DHT22;36325;51.512;-0.382;2023-09-12T07:33:05;19.60;99.90
30037;DHT22;36325;51.512;-0.382;2023-09-12T07:35:33;19.60;99.90
30037;DHT22;36325;51.512;-0.382;2023-09-12T07:38:00;19.60;99.90
30037;DHT22;36325;51.512;-0.382;2023-09-12T07:40:28;19.60;99.90
30037;DHT22;36325;51.512;-0.382;2023-09-12T07:42:57;19.70;99.90
30037;DHT22;36325;51.512;-0.382;2023-09-12T07:45:24;19.80;99.90
30037;DHT22;36325;51.512;-0.382;2023-09-12T07:47:52;19.90;99.90
30037;DHT22;36325;51.512;-0.382;2023-09-12T07:50:20;20.00;99.90
30037;DHT22;36325;51.512;-0.382;2023-09-12T07:52:47;20.10;99.90
30037;DHT22;36325;51.512;-0.382;2023-09-12T07:57:44;20.20;99.90
30037;DHT22;36325;51.512;-0.382;2023-09-12T08:00:12;20.40;99.90
30037;DHT22;36325;51.512;-0.382;2023-09-12T08:02:40;20.40;99.90
30037;DHT22;36325;51.512;-0.382;2023-09-12T08:05:08;20.50;99.90
30037;DHT22;36325;51.512;-0.382;2023-09-12T08:07:36;20.60;99.90
30037;DHT22;36325;51.512;-0.382;2023-09-12T08:10:07;20.80;99.90
30037;DHT22;36325;51.512;-0.382;2023-09-12T08:12:37;20.70;99.90
30037;DHT22;36325;51.512;-0.382;2023-09-12T08:15:09;20.80;99.90
30037;DHT22;36325;51.512;-0.382;2023-09-12T08:17:37;20.90;99.90
30037;DHT22;36325;51.512;-0.382;2023-09-12T08:20:11;22.20;99.90
30037;DHT22;36325;51.512;-0.382;2023-09-12T08:22:38;21.00;99.90
30037;DHT22;36325;51.512;-0.382;2023-09-12T08:25:06;21.00;99.90
30037;DHT22;36325;51.512;-0.382;2023-09-12T08:27:34;21.00;99.90
30037;DHT22;36325;51.512;-0.382;2023-09-12T08:30:02;21.10;99.90
30037;DHT22;36325;51.512;-0.382;2023-09-12T08:32:31;21.20;99.90
30037;DHT22;36325;51.512;-0.382;2023-09-12T08:34:59;21.30;99.90
30037;DHT22;36325;51.512;-0.382;2023-09-12T08:37:26;21.40;99.90
30037;DHT22;36325;51.512;-0.382;2023-09-12T08:39:54;21.50;99.90
30037;DHT22;36325;51.512;-0.382;2023-09-12T08:42:26;21.60;99.90
30037;DHT22;36325;51.512;-0.382;2023-09-12T08:44:56;21.70;99.90
30037;DHT22;36325;51.512;-0.382;2023-09-12T08:47:25;21.90;99.90
30037;DHT22;36325;51.512;-0.382;2023-09-12T08:49:54;22.10;99.90
30037;DHT22;36325;51.512;-0.382;2023-09-12T08:52:22;22.20;99.90
30037;DHT22;36325;51.512;-0.382;2023-09-12T08:54:51;22.40;99.90
30037;DHT22;36325;51.512;-0.382;2023-09-12T08:57:19;22.60;99.90
30037;DHT22;36325;51.512;-0.382;2023-09-12T08:59:48;22.70;99.90
30037;DHT22;36325;51.512;-0.382;2023-09-12T09:02:17;22.70;99.90
30037;DHT22;36325;51.512;-0.382;2023-09-12T09:04:46;24.00;99.90
30037;DHT22;36325;51.512;-0.382;2023-09-12T09:07:16;22.70;99.90
30037;DHT22;36325;51.512;-0.382;2023-09-12T09:09:46;22.60;99.90
30037;DHT22;36325;51.512;-0.382;2023-09-12T09:12:14;22.60;99.90
30037;DHT22;36325;51.512;-0.382;2023-09-12T09:17:09;22.70;99.90
30037;DHT22;36325;51.512;-0.382;2023-09-12T09:19:47;22.80;99.90
30037;DHT22;36325;51.512;-0.382;2023-09-12T09:22:15;22.80;99.90
30037;DHT22;36325;51.512;-0.382;2023-09-12T09:24:43;22.70;99.90
30037;DHT22;36325;51.512;-0.382;2023-09-12T09:27:11;23.00;99.90
30037;DHT22;36325;51.512;-0.382;2023-09-12T09:29:47;23.30;99.90
30037;DHT22;36325;51.512;-0.382;2023-09-12T09:32:18;23.50;99.90
30037;DHT22;36325;51.512;-0.382;2023-09-12T09:34:52;23.60;99.90
30037;DHT22;36325;51.512;-0.382;2023-09-12T09:37:21;23.80;99.90
30037;DHT22;36325;51.512;-0.382;2023-09-12T09:39:48;24.10;99.90
30037;DHT22;36325;51.512;-0.382;2023-09-12T09:42:19;24.50;99.90
30037;DHT22;36325;51.512;-0.382;2023-09-12T09:44:47;24.90;99.90
30037;DHT22;36325;51.512;-0.382;2023-09-12T09:47:15;25.10;99.90
30037;DHT22;36325;51.512;-0.382;2023-09-12T09:49:45;25.40;99.90
30037;DHT22;36325;51.512;-0.382;2023-09-12T09:54:44;25.40;99.90
30037;DHT22;36325;51.512;-0.382;2023-09-12T09:57:12;25.50;99.90
30037;DHT22;36325;51.512;-0.382;2023-09-12T09:59:41;25.50;99.90
30037;DHT22;36325;51.512;-0.382;2023-09-12T10:02:15;25.40;99.90
30037;DHT22;36325;51.512;-0.382;2023-09-12T10:04:44;25.70;99.90
30037;DHT22;36325;51.512;-0.382;2023-09-12T10:07:13;25.70;99.90
30037;DHT22;36325;51.512;-0.382;2023-09-12T10:09:43;25.90;99.90
30037;DHT22;36325;51.512;-0.382;2023-09-12T10:12:11;25.90;99.90
30037;DHT22;36325;51.512;-0.382;2023-09-12T10:14:40;25.90;99.90
30037;DHT22;36325;51.512;-0.382;2023-09-12T10:17:10;25.50;99.90
30037;DHT22;36325;51.512;-0.382;2023-09-12T10:19:48;25.00;99.90
30037;DHT22;36325;51.512;-0.382;2023-09-12T10:22:29;21.60;99.90
30037;DHT22;36325;51.512;-0.382;2023-09-12T10:25:00;24.60;99.90
30037;DHT22;36325;51.512;-0.382;2023-09-12T10:27:29;24.50;99.90
30037;DHT22;36325;51.512;-0.382;2023-09-12T10:29:57;24.50;99.90
30037;DHT22;36325;51.512;-0.382;2023-09-12T10:32:28;24.30;99.90
30037;DHT22;36325;51.512;-0.382;2023-09-12T10:34:58;24.30;99.90
30037;DHT22;36325;51.512;-0.382;2023-09-12T10:37:29;24.20;99.90
30037;DHT22;36325;51.512;-0.382;2023-09-12T10:40:05;24.10;99.90
30037;DHT22;36325;51.512;-0.382;2023-09-12T10:42:37;24.10;99.90
30037;DHT22;36325;51.512;-0.382;2023-09-12T10:45:06;24.10;99.90
30037;DHT22;36325;51.512;-0.382;2023-09-12T10:47:36;24.20;99.90
30037;DHT22;36325;51.512;-0.382;2023-09-12T10:50:04;24.30;99.90
30037;DHT22;36325;51.512;-0.382;2023-09-12T10:52:32;24.50;99.90
30037;DHT22;36325;51.512;-0.382;2023-09-12T10:55:04;24.50;99.90
30037;DHT22;36325;51.512;-0.382;2023-09-12T10:57:32;24.40;99.90
30037;DHT22;36325;51.512;-0.382;2023-09-12T11:00:10;24.40;99.90
30037;DHT22;36325;51.512;-0.382;2023-09-12T11:02:42;24.40;99.90
30037;DHT22;36325;51.512;-0.382;2023-09-12T11:08:02;24.40;99.90
30037;DHT22;36325;51.512;-0.382;2023-09-12T11:10:33;24.40;99.90
30037;DHT22;36325;51.512;-0.382;2023-09-12T11:13:01;24.40;99.90
30037;DHT22;36325;51.512;-0.382;2023-09-12T11:15:28;24.60;99.90
30037;DHT22;36325;51.512;-0.382;2023-09-12T11:18:05;24.70;99.90
30037;DHT22;36325;51.512;-0.382;2023-09-12T11:20:59;24.90;99.90
30037;DHT22;36325;51.512;-0.382;2023-09-12T11:23:27;25.00;99.90
30037;DHT22;36325;51.512;-0.382;2023-09-12T11:26:05;25.20;99.90
30037;DHT22;36325;51.512;-0.382;2023-09-12T11:28:33;25.30;99.90
30037;DHT22;36325;51.512;-0.382;2023-09-12T11:31:02;25.20;99.90
30037;DHT22;36325;51.512;-0.382;2023-09-12T11:33:32;25.20;99.90
30037;DHT22;36325;51.512;-0.382;2023-09-12T11:38:31;25.00;99.90
30037;DHT22;36325;51.512;-0.382;2023-09-12T11:40:59;25.00;99.90
30037;DHT22;36325;51.512;-0.382;2023-09-12T11:43:27;25.00;99.90
30037;DHT22;36325;51.512;-0.382;2023-09-12T11:45:56;24.80;99.90
30037;DHT22;36325;51.512;-0.382;2023-09-12T11:48:24;24.80;99.90
30037;DHT22;36325;51.512;-0.382;2023-09-12T11:53:21;24.80;99.90
30037;DHT22;36325;51.512;-0.382;2023-09-12T11:55:52;24.80;99.90
30037;DHT22;36325;51.512;-0.382;2023-09-12T11:58:20;24.80;99.90
30037;DHT22;36325;51.512;-0.382;2023-09-12T12:00:52;24.80;99.90
30037;DHT22;36325;51.512;-0.382;2023-09-12T12:03:26;24.90;99.90
30037;DHT22;36325;51.512;-0.382;2023-09-12T12:05:55;25.10;99.90
30037;DHT22;36325;51.512;-0.382;2023-09-12T12:08:24;25.00;99.90
30037;DHT22;36325;51.512;-0.382;2023-09-12T12:10:54;25.20;99.90
30037;DHT22;36325;51.512;-0.382;2023-09-12T12:13:22;25.20;99.90
30037;DHT22;36325;51.512;-0.382;2023-09-12T12:15:50;25.40;99.90
30037;DHT22;36325;51.512;-0.382;2023-09-12T12:18:19;25.60;99.90
30037;DHT22;36325;51.512;-0.382;2023-09-12T12:20:51;23.90;99.90
30037;DHT22;36325;51.512;-0.382;2023-09-12T12:23:43;26.80;99.90
30037;DHT22;36325;51.512;-0.382;2023-09-12T12:26:11;27.10;99.90
30037;DHT22;36325;51.512;-0.382;2023-09-12T12:28:40;27.00;99.90
30037;DHT22;36325;51.512;-0.382;2023-09-12T12:31:08;26.70;99.90
30037;DHT22;36325;51.512;-0.382;2023-09-12T12:33:37;26.40;99.90
30037;DHT22;36325;51.512;-0.382;2023-09-12T12:36:15;26.20;99.90
30037;DHT22;36325;51.512;-0.382;2023-09-12T12:38:46;26.10;99.90
30037;DHT22;36325;51.512;-0.382;2023-09-12T12:41:24;26.00;99.90
30037;DHT22;36325;51.512;-0.382;2023-09-12T12:43:57;25.90;99.90
30037;DHT22;36325;51.512;-0.382;2023-09-12T12:46:29;25.80;99.90
30037;DHT22;36325;51.512;-0.382;2023-09-12T12:48:58;25.80;99.90
30037;DHT22;36325;51.512;-0.382;2023-09-12T12:51:26;25.80;99.90
30037;DHT22;36325;51.512;-0.382;2023-09-12T12:53:55;25.80;99.90
30037;DHT22;36325;51.512;-0.382;2023-09-12T12:56:29;25.70;99.90
30037;DHT22;36325;51.512;-0.382;2023-09-12T12:58:59;25.40;99.90
30037;DHT22;36325;51.512;-0.382;2023-09-12T13:01:31;25.20;99.90
30037;DHT22;36325;51.512;-0.382;2023-09-12T13:03:58;25.00;99.90
30037;DHT22;36325;51.512;-0.382;2023-09-12T13:06:26;25.00;99.90
30037;DHT22;36325;51.512;-0.382;2023-09-12T13:08:55;25.10;99.90
30037;DHT22;36325;51.512;-0.382;2023-09-12T13:11:29;25.20;99.90
30037;DHT22;36325;51.512;-0.382;2023-09-12T13:13:56;25.30;99.90
30037;DHT22;36325;51.512;-0.382;2023-09-12T13:16:23;25.30;99.90
30037;DHT22;36325;51.512;-0.382;2023-09-12T13:18:50;26.10;99.90
30037;DHT22;36325;51.512;-0.382;2023-09-12T13:21:18;26.70;99.90
30037;DHT22;36325;51.512;-0.382;2023-09-12T13:23:46;26.60;99.90
30037;DHT22;36325;51.512;-0.382;2023-09-12T13:26:13;26.40;99.90
30037;DHT22;36325;51.512;-0.382;2023-09-12T13:28:40;26.00;99.90
30037;DHT22;36325;51.512;-0.382;2023-09-12T13:31:10;25.70;99.90
30037;DHT22;36325;51.512;-0.382;2023-09-12T13:33:37;25.20;99.90
30037;DHT22;36325;51.512;-0.382;2023-09-12T13:36:05;25.10;99.90
30037;DHT22;36325;51.512;-0.382;2023-09-12T13:38:33;24.80;99.90
30037;DHT22;36325;51.512;-0.382;2023-09-12T13:41:01;24.60;99.90
30037;DHT22;36325;51.512;-0.382;2023-09-12T13:43:28;24.40;99.90
30037;DHT22;36325;51.512;-0.382;2023-09-12T13:45:56;24.20;99.90
30037;DHT22;36325;51.512;-0.382;2023-09-12T13:48:23;24.00;99.90
30037;DHT22;36325;51.512;-0.382;2023-09-12T13:50:51;23.80;99.90
30037;DHT22;36325;51.512;-0.382;2023-09-12T13:53:21;23.70;99.90
30037;DHT22;36325;51.512;-0.382;2023-09-12T13:55:50;23.60;99.90
30037;DHT22;36325;51.512;-0.382;2023-09-12T13:58:17;23.50;99.90
30037;DHT22;36325;51.512;-0.382;2023-09-12T14:00:50;23.50;99.90
30037;DHT22;36325;51.512;-0.382;2023-09-12T14:03:19;23.50;99.90
30037;DHT22;36325;51.512;-0.382;2023-09-12T14:05:49;23.50;99.90
30037;DHT22;36325;51.512;-0.382;2023-09-12T14:08:17;23.50;99.90
30037;DHT22;36325;51.512;-0.382;2023-09-12T14:10:46;23.50;99.90
30037;DHT22;36325;51.512;-0.382;2023-09-12T14:13:14;23.50;99.90
30037;DHT22;36325;51.512;-0.382;2023-09-12T14:15:48;23.40;99.90
30037;DHT22;36325;51.512;-0.382;2023-09-12T14:18:18;23.50;99.90
30037;DHT22;36325;51.512;-0.382;2023-09-12T14:20:48;23.50;99.90
30037;DHT22;36325;51.512;-0.382;2023-09-12T14:23:16;23.50;99.90
30037;DHT22;36325;51.512;-0.382;2023-09-12T14:25:45;23.50;99.90
30037;DHT22;36325;51.512;-0.382;2023-09-12T14:28:13;23.50;99.90
30037;DHT22;36325;51.512;-0.382;2023-09-12T14:30:41;23.50;99.90
30037;DHT22;36325;51.512;-0.382;2023-09-12T14:33:13;23.50;99.90
30037;DHT22;36325;51.512;-0.382;2023-09-12T14:35:43;23.40;99.90
30037;DHT22;36325;51.512;-0.382;2023-09-12T14:38:14;23.40;99.90
30037;DHT22;36325;51.512;-0.382;2023-09-12T14:40:42;23.40;99.90
30037;DHT22;36325;51.512;-0.382;2023-09-12T14:43:11;23.20;99.90
30037;DHT22;36325;51.512;-0.382;2023-09-12T14:45:42;23.50;99.90
30037;DHT22;36325;51.512;-0.382;2023-09-12T14:48:09;23.50;99.90
30037;DHT22;36325;51.512;-0.382;2023-09-12T14:50:36;23.90;99.90
30037;DHT22;36325;51.512;-0.382;2023-09-12T14:53:10;23.50;99.90
30037;DHT22;36325;51.512;-0.382;2023-09-12T14:55:39;23.40;99.90
30037;DHT22;36325;51.512;-0.382;2023-09-12T14:58:06;23.40;99.90
30037;DHT22;36325;51.512;-0.382;2023-09-12T15:00:34;23.30;99.90
30037;DHT22;36325;51.512;-0.382;2023-09-12T15:05:29;23.30;99.90
30037;DHT22;36325;51.512;-0.382;2023-09-12T15:07:57;23.30;99.90
30037;DHT22;36325;51.512;-0.382;2023-09-12T15:10:25;23.30;99.90
30037;DHT22;36325;51.512;-0.382;2023-09-12T15:12:53;23.30;99.90
30037;DHT22;36325;51.512;-0.382;2023-09-12T15:15:21;23.30;99.90
30037;DHT22;36325;51.512;-0.382;2023-09-12T15:17:48;23.30;99.90
30037;DHT22;36325;51.512;-0.382;2023-09-12T15:20:29;23.10;99.90
30037;DHT22;36325;51.512;-0.382;2023-09-12T15:23:10;22.80;99.90
30037;DHT22;36325;51.512;-0.382;2023-09-12T15:25:53;22.50;99.90
30037;DHT22;36325;51.512;-0.382;2023-09-12T15:28:20;22.50;99.90
30037;DHT22;36325;51.512;-0.382;2023-09-12T15:30:47;20.80;99.90
30037;DHT22;36325;51.512;-0.382;2023-09-12T15:33:15;21.90;99.90
30037;DHT22;36325;51.512;-0.382;2023-09-12T15:35:43;21.70;99.90
30037;DHT22;36325;51.512;-0.382;2023-09-12T15:38:10;21.70;99.90
30037;DHT22;36325;51.512;-0.382;2023-09-12T15:40:38;21.50;99.90
30037;DHT22;36325;51.512;-0.382;2023-09-12T15:43:14;21.20;99.90
30037;DHT22;36325;51.512;-0.382;2023-09-12T15:45:50;20.60;99.90
30037;DHT22;36325;51.512;-0.382;2023-09-12T15:48:19;20.50;99.90
30037;DHT22;36325;51.512;-0.382;2023-09-12T15:50:48;20.30;99.90